createdAt,value
2023-09-13T00:00:46.733Z,101356.19
2023-09-13T00:03:51.343Z,101365.00
2023-09-13T00:06:56.288Z,101366.00
2023-09-13T00:10:01.315Z,101363.69
2023-09-13T00:13:05.916Z,101351.66
2023-09-13T00:16:10.438Z,101353.59
2023-09-13T00:19:17.573Z,101344.41
2023-09-13T00:22:21.823Z,101344.63
2023-09-13T00:25:26.297Z,101339.53
2023-09-13T00:28:31.143Z,101337.34
2023-09-13T00:31:36.252Z,101327.28
2023-09-13T00:34:40.980Z,101326.66
2023-09-13T00:37:45.284Z,101322.78
2023-09-13T00:40:49.612Z,101323.97
2023-09-13T00:43:54.108Z,101311.75
2023-09-13T00:46:58.770Z,101308.69
2023-09-13T00:50:04.424Z,101296.00
2023-09-13T00:53:10.269Z,101294.50
2023-09-13T00:56:19.149Z,101277.78
2023-09-13T00:59:23.679Z,101282.88
2023-09-13T01:02:29.135Z,101278.63
2023-09-13T01:05:36.827Z,101266.31
2023-09-13T01:08:45.256Z,101264.06
2023-09-13T01:11:51.573Z,101248.69
2023-09-13T01:14:56.466Z,101240.81
2023-09-13T01:18:23.411Z,101235.28
2023-09-13T01:22:02.073Z,101221.94
2023-09-13T01:25:34.962Z,101216.63
2023-09-13T01:28:48.748Z,101217.09
2023-09-13T01:31:54.388Z,101209.88
2023-09-13T01:34:59.090Z,101206.47
2023-09-13T01:38:03.812Z,101207.31
2023-09-13T01:41:26.450Z,101208.09
2023-09-13T01:44:32.844Z,101193.34
2023-09-13T01:47:42.053Z,101188.94
2023-09-13T01:50:49.275Z,101182.66
2023-09-13T01:53:56.118Z,101187.25
2023-09-13T01:57:00.464Z,101192.94
2023-09-13T02:00:06.643Z,101186.28
2023-09-13T02:03:13.237Z,101175.16
2023-09-13T02:06:17.894Z,101171.81
2023-09-13T02:09:22.653Z,101183.09
2023-09-13T02:12:33.091Z,101172.56
2023-09-13T02:15:41.291Z,101170.88
2023-09-13T02:18:45.942Z,101173.13
2023-09-13T02:21:50.481Z,101177.06
2023-09-13T02:24:54.777Z,101182.66
2023-09-13T02:27:59.205Z,101176.00
2023-09-13T02:31:03.684Z,101164.75
2023-09-13T02:34:08.007Z,101177.72
2023-09-13T02:37:12.256Z,101164.16
2023-09-13T02:40:16.866Z,101159.28
2023-09-13T02:43:21.362Z,101174.34
2023-09-13T02:46:25.767Z,101171.38
2023-09-13T02:49:30.768Z,101173.09
2023-09-13T02:52:35.740Z,101177.09
2023-09-13T02:55:40.021Z,101184.72
2023-09-13T02:58:44.538Z,101183.50
2023-09-13T03:01:51.297Z,101186.38
2023-09-13T03:04:55.810Z,101187.31
2023-09-13T03:08:00.444Z,101192.63
2023-09-13T03:11:20.080Z,101187.00
2023-09-13T03:14:24.397Z,101191.81
2023-09-13T03:17:30.170Z,101189.97
2023-09-13T03:20:41.011Z,101187.00
2023-09-13T03:23:47.741Z,101179.25
2023-09-13T03:26:52.725Z,101179.81
2023-09-13T03:29:59.272Z,101183.53
2023-09-13T03:33:04.511Z,101181.59
2023-09-13T03:36:13.529Z,101176.50
2023-09-13T03:39:18.389Z,101176.41
2023-09-13T03:42:22.917Z,101176.19
2023-09-13T03:45:27.125Z,101164.22
2023-09-13T03:48:32.506Z,101161.69
2023-09-13T03:51:37.074Z,101151.28
2023-09-13T03:54:41.777Z,101156.81
2023-09-13T03:57:46.493Z,101152.44
2023-09-13T04:00:51.111Z,101161.06
2023-09-13T04:03:59.620Z,101144.78
2023-09-13T04:07:03.926Z,101145.84
2023-09-13T04:10:08.578Z,101122.84
2023-09-13T04:13:13.001Z,101118.22
2023-09-13T04:16:18.027Z,101126.47
2023-09-13T04:19:22.935Z,101125.28
2023-09-13T04:22:27.308Z,101115.88
2023-09-13T04:25:31.601Z,101108.25
2023-09-13T04:28:36.658Z,101111.41
2023-09-13T04:31:41.246Z,101114.59
2023-09-13T04:34:47.632Z,101119.69
2023-09-13T04:37:52.013Z,101125.63
2023-09-13T04:40:56.260Z,101117.78
2023-09-13T04:44:02.768Z,101135.72
2023-09-13T04:47:07.494Z,101150.03
2023-09-13T04:50:13.117Z,101152.81
2023-09-13T04:53:17.956Z,101137.31
2023-09-13T04:56:31.714Z,101133.94
2023-09-13T04:59:45.601Z,101137.72
2023-09-13T05:02:50.119Z,101134.34
2023-09-13T05:05:56.879Z,101124.06
2023-09-13T05:09:01.609Z,101109.88
2023-09-13T05:12:08.089Z,101104.47
2023-09-13T05:15:12.648Z,101105.31
2023-09-13T05:18:24.536Z,101090.56
2023-09-13T05:21:29.524Z,101092.69
2023-09-13T05:24:34.166Z,101100.63
2023-09-13T05:27:38.569Z,101101.06
2023-09-13T05:30:48.615Z,101103.59
2023-09-13T05:33:53.315Z,101121.63
2023-09-13T05:36:57.811Z,101127.66
2023-09-13T05:40:07.316Z,101122.69
2023-09-13T05:43:12.388Z,101140.81
2023-09-13T05:46:17.974Z,101135.06
2023-09-13T05:49:22.355Z,101125.13
2023-09-13T05:52:29.922Z,101126.28
2023-09-13T05:55:34.194Z,101138.56
2023-09-13T05:58:44.382Z,101153.81
2023-09-13T06:01:49.900Z,101166.22
2023-09-13T06:04:54.761Z,101163.59
2023-09-13T06:07:59.174Z,101149.91
2023-09-13T06:11:03.534Z,101159.13
2023-09-13T06:14:12.088Z,101160.00
2023-09-13T06:17:16.808Z,101174.91
2023-09-13T06:20:21.085Z,101170.91
2023-09-13T06:23:39.888Z,101151.06
2023-09-13T06:26:45.054Z,101153.16
2023-09-13T06:29:58.555Z,101154.44
2023-09-13T06:33:12.133Z,101159.44
2023-09-13T06:36:18.120Z,101165.88
2023-09-13T06:39:23.028Z,101166.41
2023-09-13T06:42:28.860Z,101177.97
2023-09-13T06:45:34.824Z,101187.69
2023-09-13T06:48:40.907Z,101180.56
2023-09-13T06:54:55.537Z,101190.06
2023-09-13T06:58:10.634Z,101192.72
2023-09-13T07:04:36.234Z,101220.75
2023-09-13T07:07:44.802Z,101223.19
2023-09-13T07:10:49.344Z,101228.41
2023-09-13T07:13:53.885Z,101231.72
2023-09-13T07:16:58.242Z,101237.84
2023-09-13T07:20:02.455Z,101249.88
2023-09-13T07:23:07.164Z,101263.88
2023-09-13T07:26:11.643Z,101260.59
2023-09-13T07:29:16.037Z,101256.13
2023-09-13T07:32:20.416Z,101239.47
2023-09-13T07:35:24.972Z,101236.25
2023-09-13T07:38:29.179Z,101235.53
2023-09-13T07:41:33.466Z,101225.31
2023-09-13T07:44:37.977Z,101229.97
2023-09-13T07:47:42.713Z,101237.31
2023-09-13T07:50:47.335Z,101247.00
2023-09-13T07:53:54.961Z,101249.44
2023-09-13T07:56:59.846Z,101265.97
2023-09-13T08:00:07.327Z,101262.91
2023-09-13T08:03:12.084Z,101264.91
2023-09-13T08:06:16.700Z,101264.69
2023-09-13T08:09:21.157Z,101271.31
2023-09-13T08:12:25.554Z,101273.84
2023-09-13T08:15:43.185Z,101266.22
2023-09-13T08:18:51.386Z,101281.06
2023-09-13T08:21:55.987Z,101283.00
2023-09-13T08:25:00.807Z,101271.09
2023-09-13T08:28:06.663Z,101279.41
2023-09-13T08:31:11.698Z,101280.88
2023-09-13T08:34:15.984Z,101286.81
2023-09-13T08:37:20.219Z,101287.47
2023-09-13T08:40:25.511Z,101295.97
2023-09-13T08:43:32.202Z,101306.38
2023-09-13T08:46:38.358Z,101320.38
2023-09-13T08:49:44.876Z,101331.19
2023-09-13T08:52:50.578Z,101327.16
2023-09-13T08:55:57.073Z,101330.72
2023-09-13T08:59:02.768Z,101329.91
2023-09-13T09:02:11.426Z,101332.22
2023-09-13T09:05:18.324Z,101333.88
2023-09-13T09:08:25.002Z,101360.84
2023-09-13T09:11:32.843Z,101360.28
2023-09-13T09:14:38.563Z,101348.75
2023-09-13T09:17:44.107Z,101331.44
2023-09-13T09:20:48.567Z,101347.28
2023-09-13T09:23:58.177Z,101316.31
2023-09-13T09:27:04.041Z,101318.69
2023-09-13T09:30:15.749Z,101328.47
2023-09-13T09:33:32.338Z,101320.63
2023-09-13T09:36:42.186Z,101313.84
2023-09-13T09:39:46.457Z,101307.59
2023-09-13T09:42:57.059Z,101305.59
2023-09-13T09:46:01.512Z,101300.06
2023-09-13T09:49:06.045Z,101307.38
2023-09-13T09:52:12.560Z,101317.66
2023-09-13T09:55:20.195Z,101338.22
2023-09-13T09:58:25.227Z,101343.94
2023-09-13T10:01:31.836Z,101352.72
2023-09-13T10:04:55.963Z,101346.69
2023-09-13T10:08:00.206Z,101358.53
2023-09-13T10:11:06.512Z,101359.78
2023-09-13T10:14:26.153Z,101352.34
2023-09-13T10:17:30.802Z,101347.25
2023-09-13T10:20:37.083Z,101363.16
2023-09-13T10:23:51.042Z,101375.25
2023-09-13T10:26:56.596Z,101399.03
2023-09-13T10:30:06.190Z,101413.22
2023-09-13T10:33:13.779Z,101424.84
2023-09-13T10:36:32.301Z,101450.72
2023-09-13T10:39:48.161Z,101461.94
2023-09-13T10:42:55.529Z,101482.59
2023-09-13T10:46:02.340Z,101523.84
2023-09-13T10:49:06.869Z,101563.00
2023-09-13T10:52:11.454Z,101577.47
2023-09-13T10:55:17.275Z,101593.94
2023-09-13T10:58:23.904Z,101606.53
2023-09-13T11:01:29.566Z,101617.88
2023-09-13T11:04:34.392Z,101630.66
2023-09-13T11:07:48.471Z,101638.25
2023-09-13T11:10:55.941Z,101639.38
2023-09-13T11:14:11.411Z,101636.97
2023-09-13T11:17:40.331Z,101648.19
2023-09-13T11:20:45.220Z,101646.28
2023-09-13T11:27:16.593Z,101681.66
2023-09-13T11:30:51.748Z,101671.63
2023-09-13T11:34:00.493Z,101683.38
2023-09-13T11:37:07.664Z,101682.75
2023-09-13T11:40:15.546Z,101687.31
2023-09-13T11:43:33.252Z,101684.09
2023-09-13T11:46:39.212Z,101658.63
2023-09-13T11:49:55.664Z,101629.16
2023-09-13T11:53:12.829Z,101620.09
2023-09-13T11:56:44.594Z,101586.59
2023-09-13T12:00:07.098Z,101575.66
2023-09-13T12:03:19.728Z,101570.75
2023-09-13T12:06:32.361Z,101562.44
2023-09-13T12:09:39.535Z,101550.97
2023-09-13T12:12:51.273Z,101542.94
2023-09-13T12:16:04.435Z,101521.38
2023-09-13T12:19:15.569Z,101510.78
2023-09-13T12:22:23.767Z,101496.22
2023-09-13T12:25:28.800Z,101494.31
2023-09-13T12:28:41.430Z,101481.81
2023-09-13T12:31:46.616Z,101489.09
2023-09-13T12:34:51.333Z,101495.41
2023-09-13T12:38:03.764Z,101500.34
2023-09-13T12:41:09.291Z,101497.78
2023-09-13T12:44:15.959Z,101479.72
2023-09-13T12:47:20.439Z,101479.31
2023-09-13T12:50:33.885Z,101479.31
2023-09-13T12:53:40.111Z,101451.97
2023-09-13T12:56:44.652Z,101481.94
2023-09-13T12:59:51.741Z,101487.06
2023-09-13T13:02:56.234Z,101493.84
2023-09-13T13:06:03.410Z,101461.69
2023-09-13T13:09:10.073Z,101439.97
2023-09-13T13:12:17.676Z,101452.28
2023-09-13T13:15:33.554Z,101454.84
2023-09-13T13:18:53.148Z,101481.53
2023-09-13T13:22:10.678Z,101479.22
2023-09-13T13:25:22.146Z,101447.72
2023-09-13T13:28:26.917Z,101447.09
2023-09-13T13:31:31.347Z,101416.81
2023-09-13T13:34:35.992Z,101405.81
2023-09-13T13:37:47.933Z,101400.91
2023-09-13T13:41:11.243Z,101429.59
2023-09-13T13:44:18.961Z,101441.56
2023-09-13T13:47:23.609Z,101433.25
2023-09-13T13:51:33.248Z,101430.25
2023-09-13T13:54:37.858Z,101441.63
2023-09-13T13:57:43.633Z,101421.84
2023-09-13T14:00:51.599Z,101389.56
2023-09-13T14:03:56.474Z,101403.38
2023-09-13T14:07:01.066Z,101432.03
2023-09-13T14:10:06.106Z,101448.13
2023-09-13T14:13:14.610Z,101448.00
2023-09-13T14:16:22.473Z,101449.69
2023-09-13T14:19:27.324Z,101441.75
2023-09-13T14:22:32.580Z,101438.31
2023-09-13T14:25:37.959Z,101438.66
2023-09-13T14:28:43.605Z,101447.25
2023-09-13T14:31:48.432Z,101459.44
2023-09-13T14:34:53.817Z,101463.91
2023-09-13T14:38:00.195Z,101448.72
2023-09-13T14:41:04.724Z,101439.44
2023-09-13T14:44:09.896Z,101457.03
2023-09-13T14:47:16.906Z,101468.41
2023-09-13T14:50:21.800Z,101456.28
2023-09-13T14:53:26.482Z,101469.44
2023-09-13T14:56:56.182Z,101477.59
2023-09-13T15:00:05.262Z,101494.38
2023-09-13T15:03:10.139Z,101495.78
2023-09-13T15:06:19.110Z,101495.78
2023-09-13T15:09:24.537Z,101485.41
2023-09-13T15:12:38.417Z,101475.34
2023-09-13T15:15:46.602Z,101479.53
2023-09-13T15:18:52.028Z,101489.19
2023-09-13T15:21:57.133Z,101503.44
2023-09-13T15:25:02.281Z,101513.16
2023-09-13T15:28:06.893Z,101523.88
2023-09-13T15:31:11.504Z,101529.19
2023-09-13T15:34:16.056Z,101525.00
2023-09-13T15:37:20.644Z,101521.72
2023-09-13T15:40:25.752Z,101519.06
2023-09-13T15:43:30.276Z,101511.75
2023-09-13T15:46:35.482Z,101532.72
2023-09-13T15:49:40.311Z,101525.69
2023-09-13T15:52:45.641Z,101534.28
2023-09-13T15:55:49.992Z,101552.66
2023-09-13T15:58:54.620Z,101569.53
2023-09-13T16:01:59.607Z,101578.47
2023-09-13T16:05:06.440Z,101576.44
2023-09-13T16:08:11.439Z,101585.16
2023-09-13T16:11:16.520Z,101571.63
2023-09-13T16:14:35.950Z,101575.16
2023-09-13T16:17:40.650Z,101571.69
2023-09-13T16:20:46.290Z,101598.66
2023-09-13T16:23:51.721Z,101593.19
2023-09-13T16:26:57.545Z,101578.84
2023-09-13T16:30:05.651Z,101578.47
2023-09-13T16:33:10.382Z,101586.31
2023-09-13T16:36:15.007Z,101594.38
2023-09-13T16:39:20.838Z,101623.47
2023-09-13T16:42:25.637Z,101631.06
2023-09-13T16:45:30.957Z,101634.19
2023-09-13T16:48:36.364Z,101634.75
2023-09-13T16:51:44.006Z,101637.41
2023-09-13T16:54:53.576Z,101648.31
2023-09-13T16:57:58.368Z,101635.81
2023-09-13T17:01:04.595Z,101647.44
2023-09-13T17:04:11.109Z,101644.91
2023-09-13T17:07:16.963Z,101646.50
2023-09-13T17:10:24.997Z,101656.75
2023-09-13T17:13:29.769Z,101653.44
2023-09-13T17:16:35.025Z,101664.50
2023-09-13T17:19:40.014Z,101671.88
2023-09-13T17:22:44.867Z,101677.56
2023-09-13T17:25:52.249Z,101684.28
2023-09-13T17:28:57.324Z,101683.47
2023-09-13T17:32:02.409Z,101694.03
2023-09-13T17:35:07.851Z,101712.50
2023-09-13T17:38:12.869Z,101714.91
2023-09-13T17:41:17.523Z,101720.44
2023-09-13T17:44:22.066Z,101718.84
2023-09-13T17:47:26.773Z,101723.81
2023-09-13T17:50:31.248Z,101722.81
2023-09-13T17:53:35.463Z,101717.88
2023-09-13T17:56:40.199Z,101712.41
2023-09-13T17:59:47.300Z,101717.44
2023-09-13T18:02:52.438Z,101721.38
2023-09-13T18:05:57.425Z,101730.81
2023-09-13T18:09:02.336Z,101736.47
2023-09-13T18:12:07.950Z,101741.41
2023-09-13T18:15:13.346Z,101750.59
2023-09-13T18:18:18.519Z,101764.19
2023-09-13T18:21:24.811Z,101769.13
2023-09-13T18:24:38.865Z,101777.44
2023-09-13T18:27:45.166Z,101787.63
2023-09-13T18:31:04.658Z,101798.19
2023-09-13T18:34:10.798Z,101798.19
2023-09-13T18:37:15.409Z,101803.09
2023-09-13T18:40:20.781Z,101801.53
2023-09-13T18:43:28.651Z,101803.69
2023-09-13T18:46:33.065Z,101805.66
2023-09-13T18:49:37.424Z,101809.97
2023-09-13T18:52:41.900Z,101800.44
2023-09-13T18:55:51.436Z,101799.34
2023-09-13T18:58:56.117Z,101781.09
2023-09-13T19:02:00.986Z,101784.81
2023-09-13T19:05:05.939Z,101777.19
2023-09-13T19:08:10.487Z,101776.41
2023-09-13T19:11:15.016Z,101780.19
2023-09-13T19:14:19.315Z,101786.03
2023-09-13T19:17:24.177Z,101785.53
2023-09-13T19:20:30.034Z,101785.69
2023-09-13T19:23:35.502Z,101789.38
2023-09-13T19:26:41.936Z,101804.38
2023-09-13T19:29:47.797Z,101806.41
2023-09-13T19:32:52.806Z,101813.75
2023-09-13T19:36:01.674Z,101813.91
2023-09-13T19:39:07.217Z,101821.75
2023-09-13T19:42:11.682Z,101825.78
2023-09-13T19:45:16.174Z,101834.09
2023-09-13T19:48:20.885Z,101831.44
2023-09-13T19:51:25.680Z,101827.09
2023-09-13T19:54:39.212Z,101824.66
2023-09-13T19:57:43.774Z,101821.34
2023-09-13T20:00:55.222Z,101828.53
2023-09-13T20:04:00.309Z,101830.59
2023-09-13T20:07:05.464Z,101837.00
2023-09-13T20:10:11.736Z,101835.38
2023-09-13T20:13:16.465Z,101843.41
2023-09-13T20:16:21.330Z,101841.81
2023-09-13T20:19:25.628Z,101849.72
2023-09-13T20:22:32.206Z,101858.78
2023-09-13T20:25:37.188Z,101858.84
2023-09-13T20:28:42.091Z,101864.31
2023-09-13T20:31:46.886Z,101872.44
2023-09-13T20:34:59.880Z,101876.91
2023-09-13T20:38:05.140Z,101880.59
2023-09-13T20:41:09.199Z,101893.78
2023-09-13T20:44:13.735Z,101888.50
2023-09-13T20:47:18.341Z,101894.91
2023-09-13T20:50:22.730Z,101894.19
2023-09-13T20:53:28.927Z,101884.78
2023-09-13T20:56:33.377Z,101882.28
2023-09-13T20:59:40.166Z,101870.31
2023-09-13T21:02:44.701Z,101881.75
2023-09-13T21:05:49.935Z,101871.56
2023-09-13T21:08:54.804Z,101881.34
2023-09-13T21:11:59.009Z,101897.91
2023-09-13T21:15:04.191Z,101902.41
2023-09-13T21:18:09.147Z,101897.78
2023-09-13T21:21:15.435Z,101914.50
2023-09-13T21:24:20.167Z,101916.63
2023-09-13T21:27:25.420Z,101924.53
2023-09-13T21:30:30.133Z,101919.56
2023-09-13T21:33:35.501Z,101934.28
2023-09-13T21:36:40.250Z,101942.00
2023-09-13T21:39:45.496Z,101943.53
2023-09-13T21:42:51.048Z,101929.88
2023-09-13T21:46:03.176Z,101935.69
2023-09-13T21:49:08.366Z,101934.75
2023-09-13T21:52:14.996Z,101946.38
2023-09-13T21:55:21.096Z,101948.31
2023-09-13T21:58:25.809Z,101958.06
2023-09-13T22:01:30.919Z,101960.63
2023-09-13T22:04:35.648Z,101965.78
2023-09-13T22:07:39.957Z,101974.19
2023-09-13T22:10:45.440Z,101988.56
2023-09-13T22:13:49.964Z,101978.38
2023-09-13T22:16:54.524Z,101988.63
2023-09-13T22:19:58.840Z,101999.03
2023-09-13T22:23:03.407Z,102000.97
2023-09-13T22:26:09.159Z,101994.88
2023-09-13T22:29:13.901Z,101989.75
2023-09-13T22:32:18.598Z,101995.81
2023-09-13T22:35:23.166Z,101978.28
2023-09-13T22:38:27.597Z,101978.28
2023-09-13T22:41:34.600Z,101976.69
2023-09-13T22:44:39.153Z,101967.16
2023-09-13T22:47:44.031Z,101968.22
2023-09-13T22:50:48.771Z,101972.66
2023-09-13T22:53:57.245Z,101982.56
2023-09-13T22:57:01.906Z,101973.66
2023-09-13T23:00:07.405Z,101971.75
2023-09-13T23:03:12.281Z,101976.28
2023-09-13T23:06:17.172Z,101983.19
2023-09-13T23:09:22.914Z,101980.75
2023-09-13T23:12:27.787Z,101987.88
2023-09-13T23:15:34.171Z,101982.72
2023-09-13T23:18:38.628Z,101984.00
2023-09-13T23:21:43.124Z,101990.81
2023-09-13T23:24:47.444Z,101994.53
2023-09-13T23:27:55.108Z,101991.28
2023-09-13T23:31:09.677Z,101981.53
2023-09-13T23:34:15.338Z,101980.75
2023-09-13T23:37:20.822Z,101985.22
2023-09-13T23:40:26.231Z,101985.44
2023-09-13T23:43:35.511Z,101978.09
2023-09-13T23:46:40.038Z,101990.97
2023-09-13T23:49:44.680Z,101984.81
2023-09-13T23:52:48.903Z,101984.81
2023-09-13T23:55:54.075Z,101981.59
2023-09-13T23:58:58.773Z,101975.66
